Time;durP1;ratioP1;P1;durP2;ratioP2;P2;SDS_P1;SDS_P2;PMS_P1;PMS_P2;Temp;Humidity;BMP_temperature;BMP_pressure;BME280_temperature;BME280_humidity;BME280_pressure;Samples;Min_cycle;Max_cycle;Signal;HPM_P1;HPM_P2
2023/12/23 00:01:09;;;;;;;7.70;0.80;;;9.50;99.90;;;;;;5100908;28;20453;-69
2023/12/23 00:03:37;;;;;;;9.57;0.97;;;9.50;99.90;;;;;;5102792;27;20450;-70
2023/12/23 00:06:05;;;;;;;6.73;0.80;;;9.40;99.90;;;;;;5103777;28;20929;-68
2023/12/23 00:08:33;;;;;;;9.13;0.90;;;9.40;99.90;;;;;;5103559;28;20798;-68
2023/12/23 00:11:02;;;;;;;6.73;0.67;;;9.40;99.90;;;;;;5103899;28;20781;-70
2023/12/23 00:13:31;;;;;;;9.20;1.80;;;9.40;99.90;;;;;;5103742;28;20553;-69
2023/12/23 00:15:59;;;;;;;9.70;1.30;;;9.40;99.90;;;;;;5103684;28;20781;-69
2023/12/23 00:18:27;;;;;;;7.00;0.80;;;9.20;99.90;;;;;;5103935;28;20473;-69
2023/12/23 00:20:56;;;;;;;6.97;0.93;;;9.00;99.90;;;;;;5103567;27;20442;-68
2023/12/23 00:23:24;;;;;;;7.67;1.00;;;8.90;99.90;;;;;;5100666;28;20456;-69
2023/12/23 00:25:52;;;;;;;7.13;1.10;;;9.00;99.90;;;;;;5086978;28;20435;-67
2023/12/23 00:28:20;;;;;;;11.40;1.73;;;9.10;99.90;;;;;;5090947;28;20462;-69
2023/12/23 00:30:49;;;;;;;6.40;1.00;;;9.10;99.90;;;;;;5094942;28;20502;-69
2023/12/23 00:33:17;;;;;;;9.03;1.23;;;9.00;99.90;;;;;;5103586;28;20508;-68
2023/12/23 00:35:45;;;;;;;7.27;1.33;;;8.90;99.90;;;;;;5094517;28;21051;-68
2023/12/23 00:38:13;;;;;;;7.33;1.10;;;8.90;99.90;;;;;;5103483;28;20499;-68
2023/12/23 00:40:41;;;;;;;9.97;1.70;;;8.80;99.90;;;;;;5103351;28;20859;-67
2023/12/23 00:43:09;;;;;;;10.53;1.33;;;8.80;99.90;;;;;;5103428;28;20438;-68
2023/12/23 00:45:37;;;;;;;9.13;1.60;;;8.80;99.90;;;;;;5102906;28;20496;-69
2023/12/23 00:48:07;;;;;;;8.93;1.47;;;8.60;99.90;;;;;;5094260;28;20840;-68
2023/12/23 00:50:36;;;;;;;8.43;1.10;;;8.50;99.90;;;;;;5103311;28;20560;-71
2023/12/23 00:53:04;;;;;;;8.30;1.47;;;8.40;99.90;;;;;;5103093;28;21117;-68
2023/12/23 00:55:32;;;;;;;11.70;1.47;;;8.30;99.90;;;;;;5088614;28;20452;-69
2023/12/23 00:58:00;;;;;;;8.20;1.10;;;8.10;99.90;;;;;;5097456;28;20478;-69
2023/12/23 01:00:28;;;;;;;8.30;1.33;;;8.10;99.90;;;;;;5096956;28;20496;-68
2023/12/23 01:02:56;;;;;;;6.70;0.90;;;8.10;99.90;;;;;;5091379;28;20459;-69
2023/12/23 01:05:25;;;;;;;8.30;1.57;;;8.10;99.90;;;;;;5088875;28;20461;-71
2023/12/23 01:07:53;;;;;;;10.17;1.40;;;8.10;99.90;;;;;;5097583;28;20469;-67
2023/12/23 01:10:24;;;;;;;7.20;1.13;;;8.10;99.90;;;;;;5097138;28;20822;-69
2023/12/23 01:12:52;;;;;;;6.87;1.10;;;8.10;99.90;;;;;;5093817;28;20436;-68
2023/12/23 01:15:21;;;;;;;8.90;1.13;;;8.20;99.90;;;;;;5101720;28;20488;-68
2023/12/23 01:17:49;;;;;;;8.00;1.00;;;8.30;99.90;;;;;;5094598;28;20462;-67
2023/12/23 01:20:17;;;;;;;9.00;2.60;;;8.30;99.90;;;;;;5102625;28;20445;-68
2023/12/23 01:22:47;;;;;;;10.53;1.53;;;8.30;99.90;;;;;;5102651;28;20888;-69
2023/12/23 01:25:15;;;;;;;6.53;0.97;;;8.40;99.90;;;;;;5093687;28;20460;-67
2023/12/23 01:27:43;;;;;;;8.87;1.00;;;8.40;99.90;;;;;;5102330;28;20885;-68
2023/12/23 01:30:12;;;;;;;6.77;1.30;;;8.50;99.90;;;;;;5103020;28;20445;-69
2023/12/23 01:32:43;;;;;;;6.80;1.07;;;8.60;99.90;;;;;;5102792;28;20437;-69
2023/12/23 01:35:11;;;;;;;7.80;0.70;;;8.60;99.90;;;;;;5100943;28;20909;-68
2023/12/23 01:37:39;;;;;;;7.70;1.73;;;8.60;99.90;;;;;;5096317;28;20465;-67
2023/12/23 01:40:10;;;;;;;6.73;0.67;;;8.60;99.90;;;;;;5104397;28;20445;-68
2023/12/23 01:42:39;;;;;;;6.30;0.80;;;8.70;99.90;;;;;;5106668;28;21039;-68
2023/12/23 01:45:08;;;;;;;8.87;1.00;;;8.70;99.90;;;;;;5106156;28;20461;-67
2023/12/23 01:47:39;;;;;;;6.60;0.80;;;8.70;99.90;;;;;;5106611;28;20483;-67
2023/12/23 01:50:09;;;;;;;7.70;1.40;;;8.70;99.90;;;;;;5106418;28;20445;-69
2023/12/23 01:52:39;;;;;;;7.10;1.30;;;8.60;99.90;;;;;;5106266;28;20454;-69
2023/12/23 01:55:09;;;;;;;7.33;1.10;;;8.50;99.90;;;;;;5096966;28;20478;-67
2023/12/23 01:57:37;;;;;;;11.50;1.30;;;8.60;99.90;;;;;;5106044;28;20461;-67
2023/12/23 02:00:07;;;;;;;8.23;1.40;;;8.60;99.90;;;;;;5109365;28;20986;-67
2023/12/23 02:02:38;;;;;;;11.00;1.20;;;8.70;99.90;;;;;;5108917;28;20532;-70
2023/12/23 02:05:07;;;;;;;8.43;1.80;;;8.70;99.90;;;;;;5108861;28;20442;-65
2023/12/23 02:07:36;;;;;;;11.23;1.60;;;8.80;99.90;;;;;;5108488;28;20534;-69
2023/12/23 02:10:05;;;;;;;8.60;1.60;;;8.80;99.90;;;;;;5109825;28;20441;-68
2023/12/23 02:12:40;;;;;;;8.00;1.37;;;8.80;99.90;;;;;;5109301;28;20481;-68
2023/12/23 02:15:10;;;;;;;10.63;1.37;;;8.80;99.90;;;;;;5109149;28;20510;-71
2023/12/23 02:17:39;;;;;;;9.90;1.50;;;8.80;99.90;;;;;;5108683;28;20998;-69
2023/12/23 02:20:08;;;;;;;9.87;1.40;;;8.90;99.90;;;;;;5109541;28;20817;-68
2023/12/23 02:22:39;;;;;;;10.50;2.20;;;8.90;99.90;;;;;;5109215;28;21085;-68
2023/12/23 02:25:08;;;;;;;7.47;1.30;;;8.80;99.90;;;;;;5109066;28;20441;-68
2023/12/23 02:27:45;;;;;;;9.00;1.20;;;8.80;99.90;;;;;;5100711;28;20482;-70
2023/12/23 02:30:16;;;;;;;7.73;1.50;;;8.80;99.90;;;;;;5109175;28;20449;-69
2023/12/23 02:32:46;;;;;;;8.30;1.00;;;8.80;99.90;;;;;;5108857;28;20498;-66
2023/12/23 02:35:14;;;;;;;9.50;1.30;;;8.80;99.90;;;;;;5108851;27;20576;-69
2023/12/23 02:37:44;;;;;;;6.13;0.83;;;8.70;99.90;;;;;;5109114;28;20900;-70
2023/12/23 02:40:12;;;;;;;7.43;1.10;;;8.60;99.90;;;;;;5109072;28;20457;-68
2023/12/23 02:42:40;;;;;;;8.87;1.00;;;8.50;99.90;;;;;;5108505;28;20513;-69
2023/12/23 02:45:08;;;;;;;8.20;1.43;;;8.50;99.90;;;;;;5108453;28;20445;-69
2023/12/23 02:47:36;;;;;;;6.50;0.87;;;8.50;99.90;;;;;;5107604;28;20471;-70
2023/12/23 02:50:05;;;;;;;8.00;1.33;;;8.60;99.90;;;;;;5108445;28;20446;-69
2023/12/23 02:52:33;;;;;;;10.33;1.17;;;8.60;99.90;;;;;;5107692;28;20452;-68
2023/12/23 02:55:03;;;;;;;8.40;1.10;;;8.70;99.90;;;;;;5107781;28;20634;-66
2023/12/23 02:57:31;;;;;;;6.83;1.13;;;8.70;99.90;;;;;;5108463;28;20479;-70
2023/12/23 02:59:59;;;;;;;9.00;1.50;;;8.70;99.90;;;;;;5108226;27;20441;-68
2023/12/23 03:02:27;;;;;;;7.57;1.20;;;8.70;99.90;;;;;;5107876;28;20456;-69
2023/12/23 03:04:55;;;;;;;8.60;1.07;;;8.80;99.90;;;;;;5107920;28;20496;-68
2023/12/23 03:07:23;;;;;;;8.37;1.47;;;8.80;99.90;;;;;;5108035;28;20553;-69
2023/12/23 03:09:51;;;;;;;8.77;1.97;;;8.80;99.90;;;;;;5107921;28;20484;-68
2023/12/23 03:12:20;;;;;;;9.83;1.40;;;8.80;99.90;;;;;;5108452;28;20449;-68
2023/12/23 03:14:48;;;;;;;7.20;1.20;;;8.80;99.90;;;;;;5107266;28;20520;-68
2023/12/23 03:17:16;;;;;;;7.70;1.27;;;8.80;99.90;;;;;;5107646;28;20576;-69
2023/12/23 03:19:44;;;;;;;8.20;1.10;;;8.90;99.90;;;;;;5107440;28;20441;-69
2023/12/23 03:22:12;;;;;;;7.53;0.90;;;8.90;99.90;;;;;;5107637;28;20865;-69
2023/12/23 03:24:40;;;;;;;8.47;1.20;;;8.90;99.90;;;;;;5107437;28;20447;-68
2023/12/23 03:27:08;;;;;;;13.03;1.90;;;8.90;99.90;;;;;;5107930;28;20471;-68
2023/12/23 03:29:38;;;;;;;9.60;1.30;;;8.90;99.90;;;;;;5107345;28;20446;-68
2023/12/23 03:32:07;;;;;;;9.27;1.50;;;8.90;99.90;;;;;;5107581;28;20449;-68
2023/12/23 03:34:35;;;;;;;7.97;1.27;;;8.90;99.90;;;;;;5106907;28;21035;-68
2023/12/23 03:37:03;;;;;;;11.10;1.37;;;8.90;99.90;;;;;;5107111;28;20479;-68
2023/12/23 03:39:39;;;;;;;11.00;1.57;;;8.90;99.90;;;;;;5107351;28;20449;-68
2023/12/23 03:42:07;;;;;;;9.60;1.07;;;8.90;99.90;;;;;;5107653;28;20452;-67
2023/12/23 03:44:35;;;;;;;8.17;1.20;;;8.90;99.90;;;;;;5106741;28;20493;-67
2023/12/23 03:47:07;;;;;;;11.43;1.20;;;8.90;99.90;;;;;;5107242;28;20518;-67
2023/12/23 03:49:35;;;;;;;8.33;1.50;;;9.00;99.90;;;;;;5106901;28;20500;-67
2023/12/23 03:52:04;;;;;;;7.80;1.00;;;8.90;99.90;;;;;;5106922;28;20502;-68
2023/12/23 03:54:32;;;;;;;6.83;1.10;;;8.90;99.90;;;;;;5106387;28;20438;-69
2023/12/23 03:56:59;;;;;;;9.70;1.40;;;9.00;99.90;;;;;;5106773;27;20477;-69
2023/12/23 03:59:27;;;;;;;6.10;0.73;;;8.90;99.90;;;;;;5107236;28;20476;-68
2023/12/23 04:01:56;;;;;;;8.07;1.57;;;9.00;99.90;;;;;;5106130;28;20465;-69
2023/12/23 04:04:25;;;;;;;7.53;1.30;;;8.90;99.90;;;;;;5106525;28;20946;-68
2023/12/23 04:06:53;;;;;;;8.80;1.30;;;8.90;99.90;;;;;;5106558;28;20537;-68
2023/12/23 04:09:22;;;;;;;8.33;1.37;;;8.90;99.90;;;;;;5106901;28;20449;-68
2023/12/23 04:11:50;;;;;;;8.40;1.17;;;8.90;99.90;;;;;;5106787;28;20975;-68
2023/12/23 04:14:18;;;;;;;9.97;1.03;;;8.80;99.90;;;;;;5106574;28;20448;-68
2023/12/23 04:16:47;;;;;;;9.23;1.47;;;8.80;99.90;;;;;;5106841;27;20654;-68
2023/12/23 04:19:15;;;;;;;8.73;1.20;;;8.80;99.90;;;;;;5106858;28;20448;-68
2023/12/23 04:21:44;;;;;;;7.13;1.00;;;8.80;99.90;;;;;;5106662;28;20470;-68
2023/12/23 04:24:12;;;;;;;6.40;0.90;;;8.90;99.90;;;;;;5106010;27;20454;-69
2023/12/23 04:26:40;;;;;;;9.27;1.30;;;8.90;99.90;;;;;;5106141;28;20910;-68
2023/12/23 04:29:08;;;;;;;8.23;1.00;;;8.90;99.90;;;;;;5106509;28;20939;-68
2023/12/23 04:31:36;;;;;;;7.00;1.40;;;8.90;99.90;;;;;;5106789;28;20852;-69
2023/12/23 04:34:04;;;;;;;8.47;1.17;;;9.00;99.90;;;;;;5106439;28;20856;-68
2023/12/23 04:36:32;;;;;;;6.83;1.00;;;8.90;99.90;;;;;;5106083;28;20477;-69
2023/12/23 04:39:04;;;;;;;8.53;0.90;;;9.00;99.90;;;;;;5106507;28;21143;-69
2023/12/23 04:41:33;;;;;;;7.13;0.93;;;9.00;99.90;;;;;;5106325;28;20500;-68
2023/12/23 04:44:02;;;;;;;6.43;0.60;;;9.00;99.90;;;;;;5106338;28;20484;-70
2023/12/23 04:46:30;;;;;;;9.13;1.00;;;9.00;99.90;;;;;;5106074;28;20461;-69
2023/12/23 04:48:58;;;;;;;8.57;0.90;;;9.00;99.90;;;;;;5106036;28;20473;-69
2023/12/23 04:51:26;;;;;;;6.80;0.80;;;9.10;99.90;;;;;;5106097;28;20537;-69
2023/12/23 04:53:54;;;;;;;8.37;1.00;;;9.10;99.90;;;;;;5105313;28;20441;-69
2023/12/23 04:56:26;;;;;;;8.77;0.90;;;9.00;99.90;;;;;;5105798;28;20985;-69
2023/12/23 04:58:56;;;;;;;8.40;0.90;;;9.10;99.90;;;;;;5106067;28;20487;-68
2023/12/23 05:01:27;;;;;;;7.03;0.90;;;9.10;99.90;;;;;;5106119;28;20528;-68
2023/12/23 05:03:55;;;;;;;7.43;1.00;;;9.10;99.90;;;;;;5105768;28;20445;-68
2023/12/23 05:06:23;;;;;;;6.60;0.50;;;9.10;99.90;;;;;;5105593;28;21129;-69
2023/12/23 05:08:53;;;;;;;7.30;1.10;;;9.10;99.90;;;;;;5105670;28;20437;-68
2023/12/23 05:11:20;;;;;;;6.50;0.80;;;9.10;99.90;;;;;;5105880;28;21011;-68
2023/12/23 05:13:50;;;;;;;7.43;0.90;;;9.10;99.90;;;;;;5105712;28;20526;-70
2023/12/23 05:16:18;;;;;;;7.40;0.93;;;9.10;99.90;;;;;;5109809;28;20573;-69
2023/12/23 05:18:46;;;;;;;6.40;0.80;;;9.10;99.90;;;;;;5110106;28;21107;-70
2023/12/23 05:21:16;;;;;;;6.97;0.93;;;9.10;99.90;;;;;;5110048;28;20443;-69
2023/12/23 05:23:44;;;;;;;7.07;1.17;;;9.10;99.90;;;;;;5109590;28;20506;-70
2023/12/23 05:26:12;;;;;;;6.13;0.80;;;9.10;99.90;;;;;;5109797;28;20534;-68
2023/12/23 05:28:40;;;;;;;8.07;0.77;;;9.10;99.90;;;;;;5109967;28;20444;-69
2023/12/23 05:31:09;;;;;;;6.80;0.70;;;9.10;99.90;;;;;;5109924;28;20473;-71
2023/12/23 05:33:37;;;;;;;6.60;0.80;;;9.10;99.90;;;;;;5108427;28;20554;-69
2023/12/23 05:36:06;;;;;;;6.50;0.83;;;9.10;99.90;;;;;;5093295;28;21037;-69
2023/12/23 05:38:34;;;;;;;5.70;0.40;;;9.10;99.90;;;;;;5108234;28;20512;-68
2023/12/23 05:41:02;;;;;;;6.67;0.70;;;9.20;99.90;;;;;;5107703;28;20441;-69
2023/12/23 05:43:30;;;;;;;6.20;0.67;;;9.10;99.90;;;;;;5109247;28;20518;-69
2023/12/23 05:45:58;;;;;;;7.73;0.83;;;9.10;99.90;;;;;;5108622;28;20918;-67
2023/12/23 05:48:28;;;;;;;6.17;0.63;;;9.10;99.90;;;;;;5109862;28;20486;-68
2023/12/23 05:50:56;;;;;;;6.00;0.60;;;9.10;99.90;;;;;;5109670;28;21136;-69
2023/12/23 05:53:24;;;;;;;6.00;0.47;;;9.00;99.90;;;;;;5109475;28;20938;-69
2023/12/23 05:55:52;;;;;;;6.60;0.70;;;9.00;99.90;;;;;;5108916;28;20535;-69
2023/12/23 05:58:20;;;;;;;6.03;0.60;;;9.00;99.90;;;;;;5109558;28;20465;-69
2023/12/23 06:00:49;;;;;;;5.90;0.40;;;9.00;99.90;;;;;;5109181;28;21078;-69
2023/12/23 06:03:17;;;;;;;8.10;0.60;;;9.00;99.90;;;;;;5109076;28;20473;-70
2023/12/23 06:05:46;;;;;;;5.80;0.50;;;9.00;99.90;;;;;;5107351;28;20437;-68
2023/12/23 06:08:14;;;;;;;7.70;0.40;;;9.00;99.90;;;;;;5109122;28;20457;-68
2023/12/23 06:10:42;;;;;;;6.20;0.40;;;9.00;99.90;;;;;;5108922;28;20923;-69
2023/12/23 06:13:25;;;;;;;6.90;0.73;;;9.00;99.90;;;;;;5109166;28;20433;-67
2023/12/23 06:15:53;;;;;;;6.40;1.13;;;9.10;99.90;;;;;;5108905;28;20452;-69
2023/12/23 06:18:21;;;;;;;5.73;0.40;;;9.10;99.90;;;;;;5109331;28;20905;-68
2023/12/23 06:20:50;;;;;;;5.97;0.43;;;9.10;99.90;;;;;;5108405;27;20446;-68
2023/12/23 06:23:18;;;;;;;5.57;0.40;;;9.10;99.90;;;;;;5109400;28;20441;-69
2023/12/23 06:25:46;;;;;;;5.70;0.40;;;9.10;99.90;;;;;;5106353;28;20445;-69
2023/12/23 06:28:14;;;;;;;5.60;0.30;;;9.10;99.90;;;;;;5108378;28;20489;-68
2023/12/23 06:30:43;;;;;;;6.10;0.50;;;9.10;99.90;;;;;;5108861;27;20437;-69
2023/12/23 06:33:11;;;;;;;5.77;0.50;;;9.20;99.90;;;;;;5108789;28;20477;-70
2023/12/23 06:35:39;;;;;;;5.90;0.37;;;9.10;99.90;;;;;;5090671;28;20500;-68
2023/12/23 06:38:08;;;;;;;5.70;0.50;;;9.10;99.90;;;;;;5087944;28;20486;-65
2023/12/23 06:40:36;;;;;;;5.63;0.30;;;9.20;99.90;;;;;;5107430;28;20446;-68
2023/12/23 06:43:04;;;;;;;5.80;0.33;;;9.20;99.90;;;;;;5108739;28;20898;-70
2023/12/23 06:45:52;;;;;;;5.83;0.60;;;9.20;99.90;;;;;;5107996;28;20449;-68
2023/12/23 06:48:21;;;;;;;5.77;0.50;;;9.10;99.90;;;;;;5108282;28;20992;-69
2023/12/23 06:50:49;;;;;;;5.97;0.53;;;9.10;99.90;;;;;;5107976;28;20528;-68
2023/12/23 06:53:19;;;;;;;6.17;0.50;;;9.10;99.90;;;;;;5108619;28;20446;-67
2023/12/23 06:55:47;;;;;;;6.00;0.43;;;9.10;99.90;;;;;;5107831;28;20451;-69
2023/12/23 06:58:15;;;;;;;6.57;0.50;;;9.10;99.90;;;;;;5107174;28;20514;-69
2023/12/23 07:00:43;;;;;;;5.70;0.50;;;9.10;99.90;;;;;;5106004;28;20478;-69
2023/12/23 07:03:11;;;;;;;5.90;0.40;;;9.10;99.90;;;;;;5086091;28;20458;-68
2023/12/23 07:05:39;;;;;;;5.83;0.50;;;9.10;99.90;;;;;;5085768;28;20446;-69
2023/12/23 07:08:08;;;;;;;5.70;0.33;;;9.10;99.90;;;;;;5086454;28;20512;-72
2023/12/23 07:10:37;;;;;;;5.67;0.40;;;9.00;99.90;;;;;;5085980;28;20489;-68
2023/12/23 07:13:05;;;;;;;5.60;0.30;;;9.10;99.90;;;;;;5086118;28;21001;-68
2023/12/23 07:15:33;;;;;;;6.63;0.40;;;9.10;99.90;;;;;;5086864;28;20443;-69
2023/12/23 07:18:01;;;;;;;7.07;0.50;;;9.10;99.90;;;;;;5087627;28;21142;-69
2023/12/23 07:20:30;;;;;;;6.10;0.47;;;9.00;99.90;;;;;;5087589;28;20534;-68
2023/12/23 07:22:58;;;;;;;5.80;0.40;;;9.00;99.90;;;;;;5101331;28;20437;-68
2023/12/23 07:25:26;;;;;;;7.23;0.70;;;9.00;99.90;;;;;;5106835;28;21042;-68
2023/12/23 07:27:55;;;;;;;5.70;0.37;;;9.00;99.90;;;;;;5106949;28;20833;-68
2023/12/23 07:30:23;;;;;;;6.10;0.60;;;9.10;99.90;;;;;;5100735;28;20457;-68
2023/12/23 07:32:51;;;;;;;5.90;0.40;;;9.10;99.90;;;;;;5087658;28;20457;-69
2023/12/23 07:35:19;;;;;;;6.10;0.47;;;9.00;99.90;;;;;;5086669;28;20449;-68
2023/12/23 07:37:49;;;;;;;5.60;0.30;;;9.10;99.90;;;;;;5086026;28;20486;-67
2023/12/23 07:40:17;;;;;;;5.63;0.30;;;9.10;99.90;;;;;;5086631;28;20450;-68
2023/12/23 07:42:45;;;;;;;5.87;0.40;;;9.10;99.90;;;;;;5086727;28;20450;-68
2023/12/23 07:45:14;;;;;;;5.73;0.40;;;9.20;99.90;;;;;;5086195;28;20450;-69
2023/12/23 07:47:42;;;;;;;6.60;0.50;;;9.10;99.90;;;;;;5086284;28;21041;-68
2023/12/23 07:50:11;;;;;;;5.80;0.30;;;9.20;99.90;;;;;;5086311;28;20456;-68
2023/12/23 07:52:40;;;;;;;5.80;0.50;;;9.10;99.90;;;;;;5086429;28;20451;-68
2023/12/23 07:55:11;;;;;;;6.10;0.50;;;9.10;99.90;;;;;;5085731;28;20639;-69
2023/12/23 07:57:39;;;;;;;6.77;0.50;;;9.10;99.90;;;;;;5086576;28;20500;-67
2023/12/23 08:00:10;;;;;;;6.27;0.67;;;9.10;99.90;;;;;;5086777;28;20459;-66
2023/12/23 08:02:43;;;;;;;5.80;0.50;;;9.10;99.90;;;;;;5086871;28;21108;-67
2023/12/23 08:05:14;;;;;;;5.70;0.30;;;9.20;99.90;;;;;;5086230;28;20541;-68
2023/12/23 08:07:44;;;;;;;6.00;0.30;;;9.20;99.90;;;;;;5087167;28;20504;-67
2023/12/23 08:10:12;;;;;;;5.87;0.37;;;9.20;99.90;;;;;;5087692;28;20496;-69
2023/12/23 08:12:40;;;;;;;5.60;0.30;;;9.20;99.90;;;;;;5090347;28;20512;-67
2023/12/23 08:15:09;;;;;;;6.30;0.40;;;9.20;99.90;;;;;;5088167;28;20458;-68
2023/12/23 08:17:37;;;;;;;6.53;0.50;;;9.20;99.90;;;;;;5086935;28;20495;-69
2023/12/23 08:20:08;;;;;;;5.67;0.30;;;9.20;99.90;;;;;;5087102;28;20452;-68
2023/12/23 08:22:36;;;;;;;5.70;0.30;;;9.20;99.90;;;;;;5087606;28;20450;-67
2023/12/23 08:25:05;;;;;;;5.67;0.40;;;9.30;99.90;;;;;;5098822;28;20442;-69
2023/12/23 08:27:33;;;;;;;5.93;0.47;;;9.30;99.90;;;;;;5106786;28;20466;-68
2023/12/23 08:30:01;;;;;;;7.10;0.40;;;9.30;99.90;;;;;;5106907;28;20499;-68
2023/12/23 08:32:29;;;;;;;6.83;0.43;;;9.30;99.90;;;;;;5106932;28;20866;-68
2023/12/23 08:34:57;;;;;;;5.60;0.40;;;9.30;99.90;;;;;;5106641;28;20558;-68
2023/12/23 08:37:27;;;;;;;5.70;0.40;;;9.30;99.90;;;;;;5107121;28;20823;-69
2023/12/23 08:39:55;;;;;;;6.50;0.50;;;9.30;99.90;;;;;;5104526;28;21010;-66
2023/12/23 08:42:23;;;;;;;5.73;0.50;;;9.30;99.90;;;;;;5086687;28;20443;-67
2023/12/23 08:44:51;;;;;;;5.67;0.40;;;9.30;99.90;;;;;;5086361;28;20493;-69
2023/12/23 08:47:19;;;;;;;5.80;0.40;;;9.30;99.90;;;;;;5086523;28;20479;-68
2023/12/23 08:49:47;;;;;;;5.67;0.40;;;9.40;99.90;;;;;;5104438;28;20435;-68
2023/12/23 08:52:15;;;;;;;5.67;0.30;;;9.40;99.90;;;;;;5107187;28;20441;-69
2023/12/23 08:54:45;;;;;;;5.57;0.30;;;9.40;99.90;;;;;;5106480;28;20455;-67
2023/12/23 08:57:13;;;;;;;7.43;0.50;;;9.40;99.90;;;;;;5104465;28;21096;-70
2023/12/23 08:59:41;;;;;;;5.80;0.53;;;9.50;99.90;;;;;;5106415;28;20485;-67
2023/12/23 09:02:09;;;;;;;5.60;0.30;;;9.50;99.90;;;;;;5106512;28;20461;-69
2023/12/23 09:04:37;;;;;;;5.63;0.37;;;9.50;99.90;;;;;;5106189;28;20449;-67
2023/12/23 09:07:06;;;;;;;5.70;0.40;;;9.50;99.90;;;;;;5098423;28;20470;-68
2023/12/23 09:09:34;;;;;;;7.83;0.40;;;9.60;99.90;;;;;;5106567;28;20624;-68
2023/12/23 09:12:04;;;;;;;5.57;0.30;;;9.60;99.90;;;;;;5105835;28;20445;-67
2023/12/23 09:14:32;;;;;;;5.90;0.37;;;9.60;99.90;;;;;;5103823;28;20444;-69
2023/12/23 09:17:00;;;;;;;6.20;0.40;;;9.60;99.90;;;;;;5102311;28;20547;-68
2023/12/23 09:19:28;;;;;;;5.90;0.40;;;9.60;99.90;;;;;;5085976;28;20484;-67
2023/12/23 09:21:56;;;;;;;5.80;0.67;;;9.60;99.90;;;;;;5085569;28;20451;-69
2023/12/23 09:24:24;;;;;;;5.57;0.30;;;9.60;99.90;;;;;;5085112;28;20458;-68
2023/12/23 09:26:52;;;;;;;5.70;0.40;;;9.60;99.90;;;;;;5085157;28;20467;-68
2023/12/23 09:29:22;;;;;;;5.60;0.30;;;9.60;99.90;;;;;;5097054;28;20504;-67
2023/12/23 09:31:50;;;;;;;5.63;0.50;;;9.60;99.90;;;;;;5105187;28;20439;-68
2023/12/23 09:34:20;;;;;;;5.50;0.20;;;9.60;99.90;;;;;;5091006;28;20459;-68
2023/12/23 09:36:48;;;;;;;5.53;0.30;;;9.60;99.90;;;;;;5083845;28;20477;-66
2023/12/23 09:39:17;;;;;;;5.67;0.43;;;9.60;99.90;;;;;;5085419;28;20491;-66
2023/12/23 09:41:46;;;;;;;5.60;0.30;;;9.60;99.90;;;;;;5085885;28;20501;-68
2023/12/23 09:44:14;;;;;;;5.53;0.30;;;9.60;99.90;;;;;;5105511;28;20871;-67
2023/12/23 09:46:44;;;;;;;5.80;0.30;;;9.50;99.90;;;;;;5105690;28;20574;-69
2023/12/23 09:49:12;;;;;;;5.50;0.30;;;9.60;99.90;;;;;;5105175;28;20492;-69
2023/12/23 09:51:41;;;;;;;5.60;0.40;;;9.60;99.90;;;;;;5100493;28;20835;-69
2023/12/23 09:54:15;;;;;;;5.60;0.30;;;9.60;99.90;;;;;;5105304;28;20455;-69
2023/12/23 09:56:44;;;;;;;5.63;0.40;;;9.60;99.90;;;;;;5104878;28;20465;-69
2023/12/23 09:59:12;;;;;;;6.20;0.40;;;9.70;99.90;;;;;;5105541;28;20561;-68
2023/12/23 10:01:40;;;;;;;5.70;0.40;;;9.70;99.90;;;;;;5107996;28;20465;-70
2023/12/23 10:04:09;;;;;;;5.60;0.50;;;9.80;99.90;;;;;;5101006;28;20804;-69
2023/12/23 10:06:37;;;;;;;5.53;0.30;;;9.80;99.90;;;;;;5108844;28;20541;-69
2023/12/23 10:09:05;;;;;;;5.70;0.40;;;9.80;99.90;;;;;;5101529;28;20432;-68
2023/12/23 10:11:33;;;;;;;6.53;0.37;;;9.90;99.90;;;;;;5105948;28;20447;-70
2023/12/23 10:14:01;;;;;;;5.80;0.40;;;9.90;99.90;;;;;;5102503;28;20627;-67
2023/12/23 10:16:29;;;;;;;6.20;0.47;;;9.90;99.90;;;;;;5101910;28;20464;-68
2023/12/23 10:18:57;;;;;;;5.77;0.60;;;9.90;99.90;;;;;;5107223;28;20981;-69
2023/12/23 10:21:27;;;;;;;5.53;0.40;;;9.80;99.90;;;;;;5108984;28;20964;-68
2023/12/23 10:23:55;;;;;;;6.20;0.60;;;9.80;99.90;;;;;;5108719;28;20500;-69
2023/12/23 10:26:23;;;;;;;5.60;0.30;;;9.80;99.90;;;;;;5108378;28;20507;-67
2023/12/23 10:28:56;;;;;;;5.63;0.30;;;9.70;99.90;;;;;;5108695;28;20438;-67
2023/12/23 10:31:30;;;;;;;5.90;0.50;;;9.80;99.90;;;;;;5109153;28;20439;-68
2023/12/23 10:34:06;;;;;;;5.47;0.40;;;9.90;99.90;;;;;;5108831;28;20447;-68
2023/12/23 10:36:36;;;;;;;5.83;0.50;;;10.00;99.90;;;;;;5108999;28;20475;-66
2023/12/23 10:39:13;;;;;;;6.43;0.40;;;9.90;99.90;;;;;;5098096;28;20916;-68
2023/12/23 10:41:49;;;;;;;5.70;0.40;;;10.00;99.90;;;;;;5088583;28;20459;-68
2023/12/23 10:44:18;;;;;;;6.07;0.40;;;10.00;99.90;;;;;;5093785;28;20548;-69
2023/12/23 10:46:47;;;;;;;5.80;0.40;;;9.90;99.90;;;;;;5107625;28;20593;-67
2023/12/23 10:49:16;;;;;;;5.50;0.30;;;9.90;99.90;;;;;;5104145;28;20938;-68
2023/12/23 10:51:46;;;;;;;5.60;0.30;;;9.80;99.90;;;;;;5104799;28;20443;-68
2023/12/23 10:54:15;;;;;;;5.50;0.30;;;9.80;99.90;;;;;;5104999;28;20436;-70
2023/12/23 10:56:45;;;;;;;6.00;0.47;;;9.80;99.90;;;;;;5104822;28;20462;-68
2023/12/23 10:59:13;;;;;;;5.90;0.43;;;9.80;99.90;;;;;;5101460;28;20579;-69
2023/12/23 11:01:43;;;;;;;5.90;0.50;;;9.80;99.90;;;;;;5087436;28;20574;-68
2023/12/23 11:04:12;;;;;;;5.57;0.30;;;9.80;99.90;;;;;;5098710;28;20836;-68
2023/12/23 11:06:43;;;;;;;5.53;0.40;;;9.80;99.90;;;;;;5104878;27;20457;-68
2023/12/23 11:09:14;;;;;;;5.63;0.30;;;9.80;99.90;;;;;;5096709;28;20534;-69
2023/12/23 11:11:46;;;;;;;5.53;0.37;;;9.80;99.90;;;;;;5100738;28;20932;-69
2023/12/23 11:14:15;;;;;;;5.80;0.43;;;9.80;99.90;;;;;;5098811;28;20790;-70
2023/12/23 11:16:43;;;;;;;8.23;0.50;;;9.80;99.90;;;;;;5102085;28;20463;-69
2023/12/23 11:19:12;;;;;;;5.57;0.40;;;9.70;99.90;;;;;;5102342;28;20489;-69
2023/12/23 11:21:40;;;;;;;5.50;0.30;;;9.70;99.90;;;;;;5107803;28;20438;-69
2023/12/23 11:24:33;;;;;;;5.50;0.30;;;9.70;99.90;;;;;;5107113;28;20605;-69
2023/12/23 11:27:01;;;;;;;5.60;0.30;;;9.70;99.90;;;;;;5087795;28;20471;-69
2023/12/23 11:29:30;;;;;;;5.67;0.30;;;9.70;99.90;;;;;;5102195;28;20434;-69
2023/12/23 11:32:11;;;;;;;5.70;0.30;;;9.70;99.90;;;;;;5107564;28;20447;-68
2023/12/23 11:34:41;;;;;;;5.57;0.30;;;9.80;99.90;;;;;;5100532;28;20435;-70
2023/12/23 11:37:09;;;;;;;5.70;0.40;;;9.80;99.90;;;;;;5099069;28;20463;-69
2023/12/23 11:39:38;;;;;;;5.43;0.30;;;9.80;99.90;;;;;;5098843;28;20820;-69
2023/12/23 11:42:08;;;;;;;5.50;0.30;;;9.80;99.90;;;;;;5096555;28;20518;-71
2023/12/23 11:44:37;;;;;;;5.47;0.30;;;9.70;99.90;;;;;;5100820;28;20978;-71
2023/12/23 11:47:06;;;;;;;5.70;0.40;;;9.80;99.90;;;;;;5094164;28;20542;-69
2023/12/23 11:49:34;;;;;;;5.77;0.40;;;9.80;99.90;;;;;;5097078;28;20533;-70
2023/12/23 11:52:02;;;;;;;7.50;0.40;;;9.80;99.90;;;;;;5099441;28;20508;-69
2023/12/23 11:54:31;;;;;;;6.10;0.77;;;9.90;99.90;;;;;;5097137;28;20455;-69
2023/12/23 11:57:00;;;;;;;6.40;0.80;;;9.90;99.90;;;;;;5097936;28;20463;-69
2023/12/23 11:59:28;;;;;;;5.60;0.37;;;9.90;99.90;;;;;;5100645;28;20515;-68
2023/12/23 12:01:56;;;;;;;5.60;0.37;;;9.90;99.90;;;;;;5106094;28;20479;-69
2023/12/23 12:04:26;;;;;;;5.50;0.40;;;9.90;99.90;;;;;;5105932;28;20549;-68
2023/12/23 12:06:55;;;;;;;5.90;0.50;;;9.90;99.90;;;;;;5105364;28;20921;-69
2023/12/23 12:09:23;;;;;;;5.53;0.30;;;10.00;99.90;;;;;;5106083;28;20518;-68
2023/12/23 12:11:52;;;;;;;5.57;0.30;;;10.00;99.90;;;;;;5105995;28;20535;-69
2023/12/23 12:14:21;;;;;;;5.47;0.30;;;10.10;99.90;;;;;;5105957;28;20446;-68
2023/12/23 12:16:49;;;;;;;5.60;0.37;;;10.20;99.90;;;;;;5105601;28;20489;-68
2023/12/23 12:19:17;;;;;;;5.80;0.40;;;10.10;99.90;;;;;;5098918;28;20447;-68
2023/12/23 12:21:46;;;;;;;5.53;0.30;;;10.20;99.90;;;;;;5101204;28;20937;-68
2023/12/23 12:24:17;;;;;;;5.57;0.30;;;10.10;99.90;;;;;;5102522;28;20581;-69
2023/12/23 12:26:52;;;;;;;5.80;0.50;;;10.00;99.90;;;;;;5105144;28;20458;-69
2023/12/23 12:29:22;;;;;;;5.90;0.50;;;9.90;99.90;;;;;;5103812;28;20453;-69
2023/12/23 12:31:50;;;;;;;5.53;0.30;;;9.80;99.90;;;;;;5104689;28;20525;-69
2023/12/23 12:34:18;;;;;;;5.50;0.30;;;9.80;99.90;;;;;;5085717;28;20867;-68
2023/12/23 12:36:47;;;;;;;5.70;0.40;;;9.80;99.90;;;;;;5085545;28;21034;-67
2023/12/23 12:39:18;;;;;;;5.60;0.30;;;9.90;99.90;;;;;;5085779;28;20484;-69
2023/12/23 12:41:56;;;;;;;5.50;0.40;;;9.90;99.90;;;;;;5086054;28;20508;-68
2023/12/23 12:44:25;;;;;;;5.50;0.30;;;9.80;99.90;;;;;;5089618;28;20484;-69
2023/12/23 12:46:57;;;;;;;5.90;0.40;;;9.80;99.90;;;;;;5102788;28;20465;-68
2023/12/23 12:49:25;;;;;;;5.63;0.33;;;9.80;99.90;;;;;;5103683;28;20442;-69
2023/12/23 12:51:57;;;;;;;5.67;0.40;;;9.80;99.90;;;;;;5088596;28;20481;-69
2023/12/23 12:54:25;;;;;;;5.53;0.40;;;9.80;99.90;;;;;;5086205;28;20442;-68
2023/12/23 12:56:53;;;;;;;5.80;0.40;;;9.80;99.90;;;;;;5085519;28;20856;-69
2023/12/23 12:59:26;;;;;;;5.80;0.43;;;9.80;99.90;;;;;;5086007;28;20443;-69
2023/12/23 13:01:58;;;;;;;6.00;0.40;;;9.80;99.90;;;;;;5103634;28;20619;-69
2023/12/23 13:04:25;;;;;;;5.67;0.40;;;9.80;99.90;;;;;;5106055;28;20881;-68